sensor_id;sensor_type;location;lat;lon;timestamp;temperature;humidity
1786;DHT22;890;48.158;11.540;2022-11-20T00:01:23;7.40;93.40
1786;DHT22;890;48.158;11.540;2022-11-20T00:03:50;7.30;93.30
1786;DHT22;890;48.158;11.540;2022-11-20T00:06:17;7.40;93.30
1786;DHT22;890;48.158;11.540;2022-11-20T00:08:44;7.40;93.30
1786;DHT22;890;48.158;11.540;2022-11-20T00:11:15;7.50;93.20
1786;DHT22;890;48.158;11.540;2022-11-20T00:13:45;7.40;93.20
1786;DHT22;890;48.158;11.540;2022-11-20T00:16:12;7.50;93.10
1786;DHT22;890;48.158;11.540;2022-11-20T00:18:38;8.60;93.60
1786;DHT22;890;48.158;11.540;2022-11-20T00:21:13;7.50;93.20
1786;DHT22;890;48.158;11.540;2022-11-20T00:23:39;7.40;93.10
1786;DHT22;890;48.158;11.540;2022-11-20T00:26:06;7.50;93.10
1786;DHT22;890;48.158;11.540;2022-11-20T00:28:32;7.50;93.10
1786;DHT22;890;48.158;11.540;2022-11-20T00:31:12;8.60;93.60
1786;DHT22;890;48.158;11.540;2022-11-20T00:33:38;7.50;93.10
1786;DHT22;890;48.158;11.540;2022-11-20T00:36:06;7.50;93.20
1786;DHT22;890;48.158;11.540;2022-11-20T00:38:33;7.50;93.20
1786;DHT22;890;48.158;11.540;2022-11-20T00:41:01;7.50;93.30
1786;DHT22;890;48.158;11.540;2022-11-20T00:43:27;7.50;92.90
1786;DHT22;890;48.158;11.540;2022-11-20T00:46:00;7.50;92.90
1786;DHT22;890;48.158;11.540;2022-11-20T00:48:26;7.40;92.90
1786;DHT22;890;48.158;11.540;2022-11-20T00:50:52;7.50;93.00
1786;DHT22;890;48.158;11.540;2022-11-20T00:53:18;7.60;93.00
1786;DHT22;890;48.158;11.540;2022-11-20T00:55:53;7.50;92.90
1786;DHT22;890;48.158;11.540;2022-11-20T00:58:18;7.50;92.80
1786;DHT22;890;48.158;11.540;2022-11-20T01:00:44;7.50;92.80
1786;DHT22;890;48.158;11.540;2022-11-20T01:03:10;7.50;92.70
1786;DHT22;890;48.158;11.540;2022-11-20T01:05:35;7.50;92.80
1786;DHT22;890;48.158;11.540;2022-11-20T01:08:01;7.50;92.70
1786;DHT22;890;48.158;11.540;2022-11-20T01:10:27;7.50;92.70
1786;DHT22;890;48.158;11.540;2022-11-20T01:12:52;7.50;92.70
1786;DHT22;890;48.158;11.540;2022-11-20T01:15:38;7.40;93.00
1786;DHT22;890;48.158;11.540;2022-11-20T01:18:03;7.40;92.80
1786;DHT22;890;48.158;11.540;2022-11-20T01:20:29;7.40;92.70
1786;DHT22;890;48.158;11.540;2022-11-20T01:22:54;7.40;92.70
1786;DHT22;890;48.158;11.540;2022-11-20T01:25:20;7.40;92.80
1786;DHT22;890;48.158;11.540;2022-11-20T01:27:46;7.40;92.60
1786;DHT22;890;48.158;11.540;2022-11-20T01:30:12;8.90;93.30
1786;DHT22;890;48.158;11.540;2022-11-20T01:32:38;7.40;92.90
1786;DHT22;890;48.158;11.540;2022-11-20T01:35:04;8.30;93.20
1786;DHT22;890;48.158;11.540;2022-11-20T01:37:30;7.40;92.60
1786;DHT22;890;48.158;11.540;2022-11-20T01:39:55;7.40;92.60
1786;DHT22;890;48.158;11.540;2022-11-20T01:42:21;7.40;92.60
1786;DHT22;890;48.158;11.540;2022-11-20T01:48:08;7.30;92.60
1786;DHT22;890;48.158;11.540;2022-11-20T01:50:34;7.50;92.80
1786;DHT22;890;48.158;11.540;2022-11-20T01:53:03;7.50;92.70
1786;DHT22;890;48.158;11.540;2022-11-20T01:55:35;7.50;92.60
1786;DHT22;890;48.158;11.540;2022-11-20T01:58:02;7.50;92.50
1786;DHT22;890;48.158;11.540;2022-11-20T02:00:29;7.50;92.60
1786;DHT22;890;48.158;11.540;2022-11-20T02:03:01;7.50;92.60
1786;DHT22;890;48.158;11.540;2022-11-20T02:05:34;7.40;92.40
1786;DHT22;890;48.158;11.540;2022-11-20T02:08:02;7.40;92.40
1786;DHT22;890;48.158;11.540;2022-11-20T02:10:29;7.40;92.40
1786;DHT22;890;48.158;11.540;2022-11-20T02:12:55;7.40;92.40
1786;DHT22;890;48.158;11.540;2022-11-20T02:15:40;7.40;92.40
1786;DHT22;890;48.158;11.540;2022-11-20T02:18:06;7.40;92.50
1786;DHT22;890;48.158;11.540;2022-11-20T02:20:32;7.50;92.40
1786;DHT22;890;48.158;11.540;2022-11-20T02:23:04;7.40;92.30
1786;DHT22;890;48.158;11.540;2022-11-20T02:25:32;7.30;92.30
1786;DHT22;890;48.158;11.540;2022-11-20T02:27:58;7.30;92.30
1786;DHT22;890;48.158;11.540;2022-11-20T02:30:24;7.30;92.30
1786;DHT22;890;48.158;11.540;2022-11-20T02:32:50;7.30;92.30
1786;DHT22;890;48.158;11.540;2022-11-20T02:37:45;7.30;92.30
1786;DHT22;890;48.158;11.540;2022-11-20T02:40:13;7.30;92.20
1786;DHT22;890;48.158;11.540;2022-11-20T02:42:38;7.40;92.20
1786;DHT22;890;48.158;11.540;2022-11-20T02:45:05;7.40;92.20
1786;DHT22;890;48.158;11.540;2022-11-20T02:47:31;7.30;92.10
1786;DHT22;890;48.158;11.540;2022-11-20T02:49:57;7.30;92.30
1786;DHT22;890;48.158;11.540;2022-11-20T02:52:23;7.40;92.20
1786;DHT22;890;48.158;11.540;2022-11-20T02:54:48;7.40;92.40
1786;DHT22;890;48.158;11.540;2022-11-20T02:57:14;7.40;92.40
1786;DHT22;890;48.158;11.540;2022-11-20T02:59:40;7.40;92.10
1786;DHT22;890;48.158;11.540;2022-11-20T03:02:05;7.50;92.00
1786;DHT22;890;48.158;11.540;2022-11-20T03:04:31;9.40;92.70
1786;DHT22;890;48.158;11.540;2022-11-20T03:06:56;7.40;91.70
1786;DHT22;890;48.158;11.540;2022-11-20T03:09:22;7.40;91.60
1786;DHT22;890;48.158;11.540;2022-11-20T03:11:48;7.40;91.60
1786;DHT22;890;48.158;11.540;2022-11-20T03:14:13;7.40;91.50
1786;DHT22;890;48.158;11.540;2022-11-20T03:16:39;7.40;91.50
1786;DHT22;890;48.158;11.540;2022-11-20T03:19:05;7.40;91.40
1786;DHT22;890;48.158;11.540;2022-11-20T03:21:33;7.40;91.40
1786;DHT22;890;48.158;11.540;2022-11-20T03:23:59;7.30;91.20
1786;DHT22;890;48.158;11.540;2022-11-20T03:26:26;7.40;91.20
1786;DHT22;890;48.158;11.540;2022-11-20T03:28:57;7.30;91.10
1786;DHT22;890;48.158;11.540;2022-11-20T03:31:29;8.20;91.40
1786;DHT22;890;48.158;11.540;2022-11-20T03:33:56;7.30;91.00
1786;DHT22;890;48.158;11.540;2022-11-20T03:36:22;7.40;91.00
1786;DHT22;890;48.158;11.540;2022-11-20T03:38:48;8.60;91.50
1786;DHT22;890;48.158;11.540;2022-11-20T03:41:22;7.40;90.90
1786;DHT22;890;48.158;11.540;2022-11-20T03:43:53;7.30;90.90
1786;DHT22;890;48.158;11.540;2022-11-20T03:46:20;7.40;90.80
1786;DHT22;890;48.158;11.540;2022-11-20T03:48:46;7.60;90.80
1786;DHT22;890;48.158;11.540;2022-11-20T03:53:43;7.30;90.70
1786;DHT22;890;48.158;11.540;2022-11-20T03:56:09;7.30;90.70
1786;DHT22;890;48.158;11.540;2022-11-20T03:58:36;7.90;90.90
1786;DHT22;890;48.158;11.540;2022-11-20T04:01:14;7.30;90.70
1786;DHT22;890;48.158;11.540;2022-11-20T04:03:41;7.20;90.60
1786;DHT22;890;48.158;11.540;2022-11-20T04:06:12;7.30;90.60
1786;DHT22;890;48.158;11.540;2022-11-20T04:08:38;7.20;90.60
1786;DHT22;890;48.158;11.540;2022-11-20T04:11:20;7.30;90.60
1786;DHT22;890;48.158;11.540;2022-11-20T04:13:48;7.20;90.40
1786;DHT22;890;48.158;11.540;2022-11-20T04:16:15;7.30;90.70
1786;DHT22;890;48.158;11.540;2022-11-20T04:18:41;7.20;90.40
1786;DHT22;890;48.158;11.540;2022-11-20T04:21:07;7.30;90.30
1786;DHT22;890;48.158;11.540;2022-11-20T04:23:33;7.80;90.50
1786;DHT22;890;48.158;11.540;2022-11-20T04:26:07;7.30;90.30
1786;DHT22;890;48.158;11.540;2022-11-20T04:28:33;7.20;90.20
1786;DHT22;890;48.158;11.540;2022-11-20T04:31:07;7.30;90.20
1786;DHT22;890;48.158;11.540;2022-11-20T04:33:34;7.20;90.10
1786;DHT22;890;48.158;11.540;2022-11-20T04:36:02;7.30;90.40
1786;DHT22;890;48.158;11.540;2022-11-20T04:38:28;8.30;90.50
1786;DHT22;890;48.158;11.540;2022-11-20T04:41:02;7.40;90.10
1786;DHT22;890;48.158;11.540;2022-11-20T04:43:28;7.30;89.90
1786;DHT22;890;48.158;11.540;2022-11-20T04:45:55;7.40;90.00
1786;DHT22;890;48.158;11.540;2022-11-20T04:48:21;7.40;90.20
1786;DHT22;890;48.158;11.540;2022-11-20T04:50:46;7.40;89.80
1786;DHT22;890;48.158;11.540;2022-11-20T04:53:12;7.50;89.90
1786;DHT22;890;48.158;11.540;2022-11-20T04:55:38;7.60;90.00
1786;DHT22;890;48.158;11.540;2022-11-20T04:58:03;7.70;89.70
1786;DHT22;890;48.158;11.540;2022-11-20T05:00:29;7.70;89.30
1786;DHT22;890;48.158;11.540;2022-11-20T05:02:55;7.80;89.20
1786;DHT22;890;48.158;11.540;2022-11-20T05:05:20;7.70;88.90
1786;DHT22;890;48.158;11.540;2022-11-20T05:07:46;7.70;88.70
1786;DHT22;890;48.158;11.540;2022-11-20T05:10:11;8.60;89.70
1786;DHT22;890;48.158;11.540;2022-11-20T05:12:37;7.60;88.60
1786;DHT22;890;48.158;11.540;2022-11-20T05:15:02;7.60;88.80
1786;DHT22;890;48.158;11.540;2022-11-20T05:17:28;7.50;88.90
1786;DHT22;890;48.158;11.540;2022-11-20T05:19:54;6.20;87.80
1786;DHT22;890;48.158;11.540;2022-11-20T05:22:19;7.50;89.90
1786;DHT22;890;48.158;11.540;2022-11-20T05:24:45;7.40;89.30
1786;DHT22;890;48.158;11.540;2022-11-20T05:27:10;7.40;89.40
1786;DHT22;890;48.158;11.540;2022-11-20T05:29:36;7.40;89.70
1786;DHT22;890;48.158;11.540;2022-11-20T05:32:02;7.40;90.20
1786;DHT22;890;48.158;11.540;2022-11-20T05:34:27;7.50;89.60
1786;DHT22;890;48.158;11.540;2022-11-20T05:36:53;7.60;89.80
1786;DHT22;890;48.158;11.540;2022-11-20T05:39:18;7.40;89.50
1786;DHT22;890;48.158;11.540;2022-11-20T05:41:44;7.40;89.30
1786;DHT22;890;48.158;11.540;2022-11-20T05:44:10;7.40;89.20
1786;DHT22;890;48.158;11.540;2022-11-20T05:46:36;7.30;89.10
1786;DHT22;890;48.158;11.540;2022-11-20T05:49:02;7.30;89.20
1786;DHT22;890;48.158;11.540;2022-11-20T05:51:27;7.30;89.30
1786;DHT22;890;48.158;11.540;2022-11-20T05:53:55;7.30;89.40
1786;DHT22;890;48.158;11.540;2022-11-20T05:56:21;7.30;89.40
1786;DHT22;890;48.158;11.540;2022-11-20T05:58:47;9.10;90.50
1786;DHT22;890;48.158;11.540;2022-11-20T06:01:18;7.40;89.40
1786;DHT22;890;48.158;11.540;2022-11-20T06:03:44;7.40;89.10
1786;DHT22;890;48.158;11.540;2022-11-20T06:06:13;7.50;89.20
1786;DHT22;890;48.158;11.540;2022-11-20T06:08:39;7.50;88.90
1786;DHT22;890;48.158;11.540;2022-11-20T06:11:07;7.50;88.60
1786;DHT22;890;48.158;11.540;2022-11-20T06:13:33;7.50;88.50
1786;DHT22;890;48.158;11.540;2022-11-20T06:15:59;7.40;88.30
1786;DHT22;890;48.158;11.540;2022-11-20T06:18:28;7.40;88.30
1786;DHT22;890;48.158;11.540;2022-11-20T06:21:02;7.40;88.10
1786;DHT22;890;48.158;11.540;2022-11-20T06:23:29;7.20;87.70
1786;DHT22;890;48.158;11.540;2022-11-20T06:25:54;7.20;87.90
1786;DHT22;890;48.158;11.540;2022-11-20T06:28:20;7.20;87.80
1786;DHT22;890;48.158;11.540;2022-11-20T06:30:46;7.20;87.40
1786;DHT22;890;48.158;11.540;2022-11-20T06:33:11;7.10;87.10
1786;DHT22;890;48.158;11.540;2022-11-20T06:35:37;7.10;87.10
1786;DHT22;890;48.158;11.540;2022-11-20T06:38:02;7.10;87.00
1786;DHT22;890;48.158;11.540;2022-11-20T06:40:28;7.00;86.70
1786;DHT22;890;48.158;11.540;2022-11-20T06:42:54;7.00;86.40
1786;DHT22;890;48.158;11.540;2022-11-20T06:45:20;7.00;86.40
1786;DHT22;890;48.158;11.540;2022-11-20T06:47:46;7.00;86.50
1786;DHT22;890;48.158;11.540;2022-11-20T06:50:12;7.00;86.30
1786;DHT22;890;48.158;11.540;2022-11-20T06:52:38;7.00;86.30
1786;DHT22;890;48.158;11.540;2022-11-20T06:55:04;7.10;86.30
1786;DHT22;890;48.158;11.540;2022-11-20T06:57:29;7.10;86.10
1786;DHT22;890;48.158;11.540;2022-11-20T06:59:55;7.20;86.00
1786;DHT22;890;48.158;11.540;2022-11-20T07:02:20;7.30;85.90
1786;DHT22;890;48.158;11.540;2022-11-20T07:04:46;7.40;85.50
1786;DHT22;890;48.158;11.540;2022-11-20T07:07:12;7.50;85.10
1786;DHT22;890;48.158;11.540;2022-11-20T07:09:37;9.10;86.30
1786;DHT22;890;48.158;11.540;2022-11-20T07:12:03;7.60;84.80
1786;DHT22;890;48.158;11.540;2022-11-20T07:14:28;7.60;84.50
1786;DHT22;890;48.158;11.540;2022-11-20T07:16:54;7.60;84.20
1786;DHT22;890;48.158;11.540;2022-11-20T07:19:20;7.70;84.00
1786;DHT22;890;48.158;11.540;2022-11-20T07:21:45;7.60;83.70
1786;DHT22;890;48.158;11.540;2022-11-20T07:24:11;7.70;83.80
1786;DHT22;890;48.158;11.540;2022-11-20T07:26:37;7.70;83.80
1786;DHT22;890;48.158;11.540;2022-11-20T07:29:02;7.70;83.60
1786;DHT22;890;48.158;11.540;2022-11-20T07:31:28;7.80;83.30
1786;DHT22;890;48.158;11.540;2022-11-20T07:33:54;7.90;83.10
1786;DHT22;890;48.158;11.540;2022-11-20T07:36:20;9.00;83.80
1786;DHT22;890;48.158;11.540;2022-11-20T07:38:45;7.90;82.70
1786;DHT22;890;48.158;11.540;2022-11-20T07:41:11;7.90;82.70
1786;DHT22;890;48.158;11.540;2022-11-20T07:43:36;7.90;82.80
1786;DHT22;890;48.158;11.540;2022-11-20T07:46:02;7.90;82.80
1786;DHT22;890;48.158;11.540;2022-11-20T07:48:29;8.60;83.50
1786;DHT22;890;48.158;11.540;2022-11-20T07:50:55;7.90;82.80
1786;DHT22;890;48.158;11.540;2022-11-20T07:53:21;8.00;82.80
1786;DHT22;890;48.158;11.540;2022-11-20T07:55:47;8.10;82.70
1786;DHT22;890;48.158;11.540;2022-11-20T07:58:13;8.10;82.60
1786;DHT22;890;48.158;11.540;2022-11-20T08:00:41;8.10;82.50
1786;DHT22;890;48.158;11.540;2022-11-20T08:03:07;8.00;82.40
1786;DHT22;890;48.158;11.540;2022-11-20T08:05:33;8.00;82.60
1786;DHT22;890;48.158;11.540;2022-11-20T08:07:59;8.20;82.60
1786;DHT22;890;48.158;11.540;2022-11-20T08:10:24;8.20;82.40
1786;DHT22;890;48.158;11.540;2022-11-20T08:12:51;8.10;82.40
1786;DHT22;890;48.158;11.540;2022-11-20T08:15:37;8.20;82.70
1786;DHT22;890;48.158;11.540;2022-11-20T08:18:11;8.00;82.50
1786;DHT22;890;48.158;11.540;2022-11-20T08:20:37;8.00;82.60
1786;DHT22;890;48.158;11.540;2022-11-20T08:23:07;8.00;82.70
1786;DHT22;890;48.158;11.540;2022-11-20T08:25:37;7.90;82.30
1786;DHT22;890;48.158;11.540;2022-11-20T08:28:06;8.00;82.40
1786;DHT22;890;48.158;11.540;2022-11-20T08:30:32;8.00;82.60
1786;DHT22;890;48.158;11.540;2022-11-20T08:33:06;8.00;82.50
1786;DHT22;890;48.158;11.540;2022-11-20T08:35:34;7.90;82.30
1786;DHT22;890;48.158;11.540;2022-11-20T08:38:01;9.00;83.30
1786;DHT22;890;48.158;11.540;2022-11-20T08:40:27;8.10;82.40
1786;DHT22;890;48.158;11.540;2022-11-20T08:42:53;8.10;82.10
1786;DHT22;890;48.158;11.540;2022-11-20T08:45:18;8.20;82.00
1786;DHT22;890;48.158;11.540;2022-11-20T08:47:45;8.20;82.50
1786;DHT22;890;48.158;11.540;2022-11-20T08:50:12;8.20;81.50
1786;DHT22;890;48.158;11.540;2022-11-20T08:52:38;8.20;81.20
1786;DHT22;890;48.158;11.540;2022-11-20T08:55:04;8.20;81.70
1786;DHT22;890;48.158;11.540;2022-11-20T08:57:34;8.10;80.60
1786;DHT22;890;48.158;11.540;2022-11-20T09:00:00;8.10;80.30
1786;DHT22;890;48.158;11.540;2022-11-20T09:02:26;8.10;80.40
1786;DHT22;890;48.158;11.540;2022-11-20T09:04:51;8.10;80.30
1786;DHT22;890;48.158;11.540;2022-11-20T09:07:18;8.20;80.40
1786;DHT22;890;48.158;11.540;2022-11-20T09:09:44;8.20;79.90
1786;DHT22;890;48.158;11.540;2022-11-20T09:12:10;8.10;79.70
1786;DHT22;890;48.158;11.540;2022-11-20T09:14:35;8.90;80.30
1786;DHT22;890;48.158;11.540;2022-11-20T09:17:01;8.40;79.50
1786;DHT22;890;48.158;11.540;2022-11-20T09:19:27;8.40;79.30
1786;DHT22;890;48.158;11.540;2022-11-20T09:21:52;8.50;79.20
1786;DHT22;890;48.158;11.540;2022-11-20T09:24:18;9.50;80.20
1786;DHT22;890;48.158;11.540;2022-11-20T09:26:44;8.60;79.00
1786;DHT22;890;48.158;11.540;2022-11-20T09:29:10;8.70;78.60
1786;DHT22;890;48.158;11.540;2022-11-20T09:31:36;8.70;78.50
1786;DHT22;890;48.158;11.540;2022-11-20T09:34:02;8.70;78.10
1786;DHT22;890;48.158;11.540;2022-11-20T09:36:27;8.80;77.50
1786;DHT22;890;48.158;11.540;2022-11-20T09:38:53;8.70;77.10
1786;DHT22;890;48.158;11.540;2022-11-20T09:47:11;8.60;76.00
1786;DHT22;890;48.158;11.540;2022-11-20T09:52:29;8.60;75.90
1786;DHT22;890;48.158;11.540;2022-11-20T09:54:58;8.70;75.90
1786;DHT22;890;48.158;11.540;2022-11-20T09:57:34;8.70;75.70
1786;DHT22;890;48.158;11.540;2022-11-20T10:00:03;8.70;75.40
1786;DHT22;890;48.158;11.540;2022-11-20T10:02:55;8.90;76.10
1786;DHT22;890;48.158;11.540;2022-11-20T10:05:40;9.10;76.20
1786;DHT22;890;48.158;11.540;2022-11-20T10:08:19;9.40;76.50
1786;DHT22;890;48.158;11.540;2022-11-20T10:10:52;9.40;76.30
1786;DHT22;890;48.158;11.540;2022-11-20T10:19:21;10.30;75.20
1786;DHT22;890;48.158;11.540;2022-11-20T10:22:40;10.30;73.50
1786;DHT22;890;48.158;11.540;2022-11-20T10:25:20;10.10;72.20
1786;DHT22;890;48.158;11.540;2022-11-20T10:30:41;9.80;72.30
1786;DHT22;890;48.158;11.540;2022-11-20T10:33:18;9.60;72.30
1786;DHT22;890;48.158;11.540;2022-11-20T10:35:51;9.50;72.10
1786;DHT22;890;48.158;11.540;2022-11-20T10:38:25;9.60;72.40
1786;DHT22;890;48.158;11.540;2022-11-20T10:41:00;9.50;72.00
1786;DHT22;890;48.158;11.540;2022-11-20T10:43:45;9.40;72.10
1786;DHT22;890;48.158;11.540;2022-11-20T10:46:18;9.50;72.60
1786;DHT22;890;48.158;11.540;2022-11-20T10:48:46;9.40;72.20
1786;DHT22;890;48.158;11.540;2022-11-20T10:51:40;9.50;72.50
1786;DHT22;890;48.158;11.540;2022-11-20T10:57:46;9.50;72.50
1786;DHT22;890;48.158;11.540;2022-11-20T11:00:12;9.60;72.10
1786;DHT22;890;48.158;11.540;2022-11-20T11:02:48;9.70;71.60
1786;DHT22;890;48.158;11.540;2022-11-20T11:07:47;9.80;71.00
1786;DHT22;890;48.158;11.540;2022-11-20T11:13:22;9.60;70.40
1786;DHT22;890;48.158;11.540;2022-11-20T11:15:48;9.70;71.10
1786;DHT22;890;48.158;11.540;2022-11-20T11:18:24;9.90;71.70
1786;DHT22;890;48.158;11.540;2022-11-20T11:20:51;10.90;71.00
1786;DHT22;890;48.158;11.540;2022-11-20T11:23:33;10.00;70.00
1786;DHT22;890;48.158;11.540;2022-11-20T11:26:01;9.90;70.60
1786;DHT22;890;48.158;11.540;2022-11-20T11:28:27;9.90;70.40
1786;DHT22;890;48.158;11.540;2022-11-20T11:30:54;9.80;70.20
1786;DHT22;890;48.158;11.540;2022-11-20T11:33:27;9.80;71.10
1786;DHT22;890;48.158;11.540;2022-11-20T11:35:55;9.70;70.80
1786;DHT22;890;48.158;11.540;2022-11-20T11:38:41;10.60;74.50
1786;DHT22;890;48.158;11.540;2022-11-20T11:41:15;10.60;74.60
1786;DHT22;890;48.158;11.540;2022-11-20T11:43:54;10.70;71.10
1786;DHT22;890;48.158;11.540;2022-11-20T11:46:43;10.50;69.00
1786;DHT22;890;48.158;11.540;2022-11-20T11:49:17;10.00;68.80
1786;DHT22;890;48.158;11.540;2022-11-20T11:54:45;10.00;68.60
1786;DHT22;890;48.158;11.540;2022-11-20T11:57:22;9.90;69.80
1786;DHT22;890;48.158;11.540;2022-11-20T12:00:02;9.90;69.20
1786;DHT22;890;48.158;11.540;2022-11-20T12:05:18;9.70;68.40
1786;DHT22;890;48.158;11.540;2022-11-20T12:07:49;9.70;68.50
1786;DHT22;890;48.158;11.540;2022-11-20T12:11:00;9.50;68.60
1786;DHT22;890;48.158;11.540;2022-11-20T12:16:32;8.30;73.90
1786;DHT22;890;48.158;11.540;2022-11-20T12:19:00;8.20;74.90
1786;DHT22;890;48.158;11.540;2022-11-20T12:30:05;8.20;76.50
1786;DHT22;890;48.158;11.540;2022-11-20T12:35:38;8.40;75.70
1786;DHT22;890;48.158;11.540;2022-11-20T12:47:22;8.50;75.00
1786;DHT22;890;48.158;11.540;2022-11-20T12:49:59;8.40;75.30
1786;DHT22;890;48.158;11.540;2022-11-20T12:55:23;8.50;75.50
1786;DHT22;890;48.158;11.540;2022-11-20T12:58:05;8.50;75.40
1786;DHT22;890;48.158;11.540;2022-11-20T13:00:36;8.40;75.80
1786;DHT22;890;48.158;11.540;2022-11-20T13:03:38;8.40;75.80
1786;DHT22;890;48.158;11.540;2022-11-20T13:06:18;8.30;76.20
1786;DHT22;890;48.158;11.540;2022-11-20T13:08:55;8.30;76.20
1786;DHT22;890;48.158;11.540;2022-11-20T13:12:03;8.30;76.90
1786;DHT22;890;48.158;11.540;2022-11-20T13:19:57;8.30;77.80
1786;DHT22;890;48.158;11.540;2022-11-20T13:22:51;8.20;77.70
1786;DHT22;890;48.158;11.540;2022-11-20T13:25:27;8.10;77.50
1786;DHT22;890;48.158;11.540;2022-11-20T13:27:57;8.10;78.00
1786;DHT22;890;48.158;11.540;2022-11-20T13:30:26;8.10;78.40
1786;DHT22;890;48.158;11.540;2022-11-20T13:33:06;8.10;78.70
1786;DHT22;890;48.158;11.540;2022-11-20T13:38:11;7.40;78.10
1786;DHT22;890;48.158;11.540;2022-11-20T13:40:49;8.20;78.90
1786;DHT22;890;48.158;11.540;2022-11-20T13:43:35;8.20;79.20
1786;DHT22;890;48.158;11.540;2022-11-20T13:46:09;8.10;79.50
1786;DHT22;890;48.158;11.540;2022-11-20T13:48:44;8.10;79.70
1786;DHT22;890;48.158;11.540;2022-11-20T13:59:57;8.30;80.00
1786;DHT22;890;48.158;11.540;2022-11-20T14:02:29;8.30;79.70
1786;DHT22;890;48.158;11.540;2022-11-20T14:04:58;8.30;79.40
1786;DHT22;890;48.158;11.540;2022-11-20T14:07:35;8.30;79.70
1786;DHT22;890;48.158;11.540;2022-11-20T14:10:23;8.40;79.70
1786;DHT22;890;48.158;11.540;2022-11-20T14:12:50;8.30;79.20
1786;DHT22;890;48.158;11.540;2022-11-20T14:15:29;8.40;79.30
1786;DHT22;890;48.158;11.540;2022-11-20T14:17:56;8.40;79.10
1786;DHT22;890;48.158;11.540;2022-11-20T14:20:26;8.40;78.90
1786;DHT22;890;48.158;11.540;2022-11-20T14:22:54;10.90;80.50
1786;DHT22;890;48.158;11.540;2022-11-20T14:25:43;8.30;79.00
1786;DHT22;890;48.158;11.540;2022-11-20T14:28:35;8.40;78.90
1786;DHT22;890;48.158;11.540;2022-11-20T14:31:01;9.10;79.30
1786;DHT22;890;48.158;11.540;2022-11-20T14:33:27;8.40;78.90
1786;DHT22;890;48.158;11.540;2022-11-20T14:35:54;8.40;78.90
1786;DHT22;890;48.158;11.540;2022-11-20T14:38:28;8.40;78.90
1786;DHT22;890;48.158;11.540;2022-11-20T14:41:05;8.30;78.80
1786;DHT22;890;48.158;11.540;2022-11-20T14:43:30;8.30;79.40
1786;DHT22;890;48.158;11.540;2022-11-20T14:46:02;8.40;79.20
1786;DHT22;890;48.158;11.540;2022-11-20T14:48:52;8.30;78.80
1786;DHT22;890;48.158;11.540;2022-11-20T14:51:38;8.20;78.30
1786;DHT22;890;48.158;11.540;2022-11-20T14:54:14;8.20;78.10
1786;DHT22;890;48.158;11.540;2022-11-20T14:56:40;8.30;78.20
1786;DHT22;890;48.158;11.540;2022-11-20T14:59:06;8.60;78.40
1786;DHT22;890;48.158;11.540;2022-11-20T15:01:33;8.40;78.10
1786;DHT22;890;48.158;11.540;2022-11-20T15:04:08;8.30;77.70
1786;DHT22;890;48.158;11.540;2022-11-20T15:06:34;8.10;77.50
1786;DHT22;890;48.158;11.540;2022-11-20T15:09:03;8.20;77.80
1786;DHT22;890;48.158;11.540;2022-11-20T15:11:31;8.10;77.80
1786;DHT22;890;48.158;11.540;2022-11-20T15:14:00;8.70;78.40
1786;DHT22;890;48.158;11.540;2022-11-20T15:16:28;8.20;77.90
1786;DHT22;890;48.158;11.540;2022-11-20T15:18:53;8.70;78.20
1786;DHT22;890;48.158;11.540;2022-11-20T15:21:19;8.10;77.50
1786;DHT22;890;48.158;11.540;2022-11-20T15:23:48;8.20;77.70
1786;DHT22;890;48.158;11.540;2022-11-20T15:26:33;9.60;79.30
1786;DHT22;890;48.158;11.540;2022-11-20T15:29:00;8.10;78.00
1786;DHT22;890;48.158;11.540;2022-11-20T15:31:25;8.80;78.60
1786;DHT22;890;48.158;11.540;2022-11-20T15:33:51;8.20;78.10
1786;DHT22;890;48.158;11.540;2022-11-20T15:36:17;8.20;78.10
1786;DHT22;890;48.158;11.540;2022-11-20T15:38:42;8.10;78.20
1786;DHT22;890;48.158;11.540;2022-11-20T15:41:08;8.00;78.30
1786;DHT22;890;48.158;11.540;2022-11-20T15:43:34;8.00;78.40
1786;DHT22;890;48.158;11.540;2022-11-20T15:46:03;8.00;78.50
1786;DHT22;890;48.158;11.540;2022-11-20T15:48:32;7.80;78.60
1786;DHT22;890;48.158;11.540;2022-11-20T15:51:07;7.90;78.80
1786;DHT22;890;48.158;11.540;2022-11-20T15:53:38;7.80;79.10
1786;DHT22;890;48.158;11.540;2022-11-20T15:56:05;7.80;79.30
1786;DHT22;890;48.158;11.540;2022-11-20T15:58:31;8.50;80.10
1786;DHT22;890;48.158;11.540;2022-11-20T16:00:59;8.40;80.00
1786;DHT22;890;48.158;11.540;2022-11-20T16:03:25;7.70;79.60
1786;DHT22;890;48.158;11.540;2022-11-20T16:05:50;7.70;79.70
1786;DHT22;890;48.158;11.540;2022-11-20T16:08:16;7.40;78.60
1786;DHT22;890;48.158;11.540;2022-11-20T16:10:41;7.70;80.00
1786;DHT22;890;48.158;11.540;2022-11-20T16:13:15;7.90;80.40
1786;DHT22;890;48.158;11.540;2022-11-20T16:16:03;8.40;81.30
1786;DHT22;890;48.158;11.540;2022-11-20T16:18:30;7.50;80.50
1786;DHT22;890;48.158;11.540;2022-11-20T16:20:56;7.90;81.20
1786;DHT22;890;48.158;11.540;2022-11-20T16:23:23;7.40;80.90
1786;DHT22;890;48.158;11.540;2022-11-20T16:25:49;7.40;81.10
1786;DHT22;890;48.158;11.540;2022-11-20T16:28:15;7.40;81.50
1786;DHT22;890;48.158;11.540;2022-11-20T16:30:41;7.40;81.50
1786;DHT22;890;48.158;11.540;2022-11-20T16:33:17;7.40;81.60
1786;DHT22;890;48.158;11.540;2022-11-20T16:35:43;7.40;81.80
1786;DHT22;890;48.158;11.540;2022-11-20T16:38:09;7.50;81.70
1786;DHT22;890;48.158;11.540;2022-11-20T16:40:35;7.50;81.80
1786;DHT22;890;48.158;11.540;2022-11-20T16:43:12;7.50;81.90
1786;DHT22;890;48.158;11.540;2022-11-20T16:45:43;8.10;82.80
1786;DHT22;890;48.158;11.540;2022-11-20T16:48:16;7.40;82.20
1786;DHT22;890;48.158;11.540;2022-11-20T16:50:50;7.40;82.40
1786;DHT22;890;48.158;11.540;2022-11-20T16:53:20;7.40;82.20
1786;DHT22;890;48.158;11.540;2022-11-20T16:55:46;8.10;82.90
1786;DHT22;890;48.158;11.540;2022-11-20T16:58:12;7.40;82.20
1786;DHT22;890;48.158;11.540;2022-11-20T17:00:39;7.30;83.10
1786;DHT22;890;48.158;11.540;2022-11-20T17:03:06;7.30;82.30
1786;DHT22;890;48.158;11.540;2022-11-20T17:05:32;7.40;82.50
1786;DHT22;890;48.158;11.540;2022-11-20T17:07:59;7.30;82.50
1786;DHT22;890;48.158;11.540;2022-11-20T17:10:24;7.30;82.40
1786;DHT22;890;48.158;11.540;2022-11-20T17:12:50;7.50;82.50
1786;DHT22;890;48.158;11.540;2022-11-20T17:15:16;7.30;82.30
1786;DHT22;890;48.158;11.540;2022-11-20T17:17:41;7.30;82.20
1786;DHT22;890;48.158;11.540;2022-11-20T17:20:08;7.40;82.10
1786;DHT22;890;48.158;11.540;2022-11-20T17:22:34;7.40;82.30
1786;DHT22;890;48.158;11.540;2022-11-20T17:25:00;7.50;82.00
1786;DHT22;890;48.158;11.540;2022-11-20T17:27:26;8.30;82.60
1786;DHT22;890;48.158;11.540;2022-11-20T17:29:51;9.00;83.30
1786;DHT22;890;48.158;11.540;2022-11-20T17:32:19;7.40;82.10
1786;DHT22;890;48.158;11.540;2022-11-20T17:34:45;8.60;83.40
1786;DHT22;890;48.158;11.540;2022-11-20T17:37:11;7.50;82.30
1786;DHT22;890;48.158;11.540;2022-11-20T17:39:36;7.40;82.10
1786;DHT22;890;48.158;11.540;2022-11-20T17:42:02;7.80;82.40
1786;DHT22;890;48.158;11.540;2022-11-20T17:44:46;7.30;81.90
1786;DHT22;890;48.158;11.540;2022-11-20T17:47:12;7.30;81.90
1786;DHT22;890;48.158;11.540;2022-11-20T17:49:38;7.30;82.00
1786;DHT22;890;48.158;11.540;2022-11-20T17:52:03;6.50;81.30
1786;DHT22;890;48.158;11.540;2022-11-20T17:54:29;7.30;82.10